AirNav   Everest Fuels
 
 792 users online  

CA60 Deer Creek Ranch Airport
Vina, California, USA

GOING TO VINA?


FAA INFORMATION EFFECTIVE 05 DECEMBER 2019

Location

FAA Identifier: CA60
Lat/Long: 39-56-59.5700N 121-59-48.9420W
39-56.992833N 121-59.815700W
39.9498806,-121.9969283
(estimated)
Elevation: 280 ft. / 85 m (estimated)
Variation: 17E (1985)
From city: 3 miles NE of VINA, CA
Time zone: UTC -8 (UTC -7 during Daylight Saving Time)
Zip code: 96092

Airport Operations

Airport use: Private use. Permission required prior to landing
Activation date: 09/1975
Control tower: no
ARTCC: OAKLAND CENTER
FSS: RANCHO MURIETA FLIGHT SERVICE STATION
Attendance: UNATNDD
Wind indicator: no
Segmented circle: no

Airport Communications

WX AWOS-3 at CIC (11 nm SE): 119.675 (530-879-3850)
WX ASOS at RBL (17 nm NW): 120.775 (530-528-8030)

Nearby radio navigation aids

VOR radial/distance  VOR name  Freq  Var
CICr308/11.8CHICO VOR/DME109.8016E
RBLr111/14.2RED BLUFF VORTAC115.7018E
RDDr140/35.9REDDING VOR/DME108.4018E

Airport Services

Runway Information

Runway 16/34

Dimensions: 3000 x 400 ft. / 914 x 122 m
Surface: asphalt
RUNWAY 16  RUNWAY 34
Traffic pattern: leftleft

Airport Ownership and Management from official FAA records

Ownership: Privately-owned
Owner: JOSHUA L. SOSKE, JR.
DEER CREEK RANCH
VINA, CA 96092
Phone 530-839-2192
Manager: JOSHUA L. SOSKE, JR.
DEER CREEK RANCH
VINA, CA 96092
Phone 530-839-2192

Airport Operational Statistics

Aircraft based on the field: 1
Single engine airplanes: 1
    

Additional Remarks

FOR CD CTC OAKLAND ARTCC AT 510-745-3380.

Instrument Procedures

There are no published instrument procedures at CA60.

Some nearby airports with instrument procedures:

KCIC - Chico Municipal Airport (11 nm SE)
O37 - Haigh Field Airport (15 nm SW)
KRBL - Red Bluff Municipal Airport (17 nm NW)
KWLW - Willows-Glenn County Airport (28 nm S)
KOVE - Oroville Municipal Airport (33 nm SE)
 
Loc | Ops | Rwys | IFR | FBO | Links
Com | Nav | Svcs | Stats | Notes
Area around CA60 (Deer Creek Ranch Airport)
 
Road maps at: MapQuest Bing Google
 
Aerial photo
No photo
 
Sectional chart

 
Airport distance calculator
Flying to Deer Creek Ranch Airport? Find the distance to fly.

From to CA60

Sunrise and sunset
Times for 15-Dec-2019
 Local
(UTC-8)
 Zulu
(UTC)
Morning civil twilight06:5314:53
Sunrise07:2415:24
Sunset16:4300:43
Evening civil twilight17:1301:13

Current date and time
Zulu (UTC)  15-Dec-2019 21:43:18
Local (UTC-8)  15-Dec-2019 13:43:18
 
METAR
KCIC 
13nm SE 
152047Z 00000KT 40SM SCT060 SCT180 10/04 A3024
KO54 
14nm NW 
152115Z AUTO 20005KT 10SM OVC016 05/01 A3021 RMK AO1
KRBL 
17nm NW 
152054Z AUTO VRB03KT 10SM CLR 11/04 A3024 RMK AO2 SLP239 T01060039 58002 $
TAF
KRBL 
17nm NW 
151726Z 1518/1618 34005KT P6SM FEW250
NOTAMs
Click for the latest NOTAMs
NOTAMs are issued by the DoD/FAA and will open in a separate window not controlled by AirNav.

 

 
 

Would you like to see your business listed on this page?

 If your business provides an interesting product or service to pilots, flight crews, aircraft, or users of the Deer Creek Ranch Airport, you should consider listing it here.  To start the listing process, click on the button below
 
Add a business
 

Other Pages about Deer Creek Ranch Airport

Update a link
 
Copyright © AirNav, LLC. All rights reserved. Privacy Policy  Contact